Time,TemperatureF,DewpointF,PressureIn,WindDirection,WindDirectionDegrees,WindSpeedMPH,WindSpeedGustMPH,Humidity,HourlyPrecipIn,Conditions,Clouds,dailyrainin,SoftwareType,DateUTC
2013-05-13 00:01:00,41.9,32.0,30.10,NNW,332,0.0,2.0,67,0.00,,,0.00,weatherlink.com 1.10,2013-05-13 05:01:00,
2013-05-13 00:16:00,41.5,32.0,30.10,NNW,332,0.0,1.0,68,0.00,,,0.00,weatherlink.com 1.10,2013-05-13 05:16:00,
2013-05-13 00:31:00,40.8,31.0,30.10,NNW,332,0.0,1.0,69,0.00,,,0.00,weatherlink.com 1.10,2013-05-13 05:31:00,
2013-05-13 00:46:00,40.7,31.0,30.10,NNW,332,1.0,2.0,69,0.00,,,0.00,weatherlink.com 1.10,2013-05-13 05:46:00,
2013-05-13 01:01:00,40.5,31.0,30.10,NNW,332,0.0,1.0,69,0.00,,,0.00,weatherlink.com 1.10,2013-05-13 06:01:00,
2013-05-13 01:16:00,40.3,31.0,30.10,NNW,332,0.0,1.0,70,0.00,,,0.00,weatherlink.com 1.10,2013-05-13 06:16:00,
2013-05-13 01:31:00,40.1,31.0,30.10,NNW,332,0.0,1.0,69,0.00,,,0.00,weatherlink.com 1.10,2013-05-13 06:31:00,
2013-05-13 01:46:00,39.7,31.0,30.10,NNW,332,0.0,0.0,71,0.00,,,0.00,weatherlink.com 1.10,2013-05-13 06:46:00,
2013-05-13 02:01:00,38.9,31.0,30.10,NNW,332,0.0,0.0,72,0.00,,,0.00,weatherlink.com 1.10,2013-05-13 07:01:00,
2013-05-13 02:16:00,38.0,30.0,30.10,NNW,332,0.0,0.0,73,0.00,,,0.00,weatherlink.com 1.10,2013-05-13 07:16:00,
2013-05-13 02:31:00,38.4,31.0,30.10,NNW,332,0.0,1.0,74,0.00,,,0.00,weatherlink.com 1.10,2013-05-13 07:31:00,
2013-05-13 02:46:00,38.9,31.0,30.10,NNW,332,1.0,1.0,72,0.00,,,0.00,weatherlink.com 1.10,2013-05-13 07:46:00,
2013-05-13 03:01:00,38.8,31.0,30.11,NNW,332,2.0,2.0,73,0.00,,,0.00,weatherlink.com 1.10,2013-05-13 08:01:00,
2013-05-13 03:16:00,39.7,30.0,30.11,NNW,332,1.0,2.0,69,0.00,,,0.00,weatherlink.com 1.10,2013-05-13 08:16:00,
2013-05-13 03:31:00,39.2,31.0,30.11,NNW,332,0.0,1.0,71,0.00,,,0.00,weatherlink.com 1.10,2013-05-13 08:31:00,
2013-05-13 03:46:00,38.2,30.0,30.11,NNW,332,1.0,2.0,73,0.00,,,0.00,weatherlink.com 1.10,2013-05-13 08:46:00,
2013-05-13 04:01:00,38.3,30.0,30.10,NNW,332,0.0,3.0,72,0.00,,,0.00,weatherlink.com 1.10,2013-05-13 09:01:00,
2013-05-13 04:16:00,38.0,30.0,30.10,NNW,332,1.0,3.0,72,0.00,,,0.00,weatherlink.com 1.10,2013-05-13 09:16:00,
2013-05-13 04:31:00,38.1,30.0,30.11,NNW,332,0.0,2.0,73,0.00,,,0.00,weatherlink.com 1.10,2013-05-13 09:31:00,
2013-05-13 04:46:00,37.9,30.0,30.10,NNW,332,0.0,2.0,73,0.00,,,0.00,weatherlink.com 1.10,2013-05-13 09:46:00,
2013-05-13 05:01:00,37.9,30.0,30.11,NNW,332,0.0,2.0,74,0.00,,,0.00,weatherlink.com 1.10,2013-05-13 10:01:00,
2013-05-13 05:07:00,37.8,30.0,30.11,NNW,332,1.0,2.0,74,0.00,,,0.00,weatherlink.com 1.10,2013-05-13 10:07:00,
2013-05-13 05:19:00,37.5,30.0,30.11,NNW,332,0.0,2.0,75,0.00,,,0.00,weatherlink.com 1.10,2013-05-13 10:19:00,
2013-05-13 05:34:00,37.2,30.0,30.11,NNW,332,0.0,0.0,75,0.00,,,0.00,weatherlink.com 1.10,2013-05-13 10:34:00,
2013-05-13 05:49:00,36.5,30.0,30.12,NNW,332,0.0,0.0,78,0.00,,,0.00,weatherlink.com 1.10,2013-05-13 10:49:00,
2013-05-13 06:04:00,35.9,30.0,30.12,NNW,332,0.0,0.0,80,0.00,,,0.00,weatherlink.com 1.10,2013-05-13 11:04:00,
2013-05-13 06:19:00,36.0,30.0,30.13,NNW,332,0.0,1.0,79,0.00,,,0.00,weatherlink.com 1.10,2013-05-13 11:19:00,
2013-05-13 06:34:00,36.8,31.0,30.13,NNW,332,0.0,1.0,79,0.00,,,0.00,weatherlink.com 1.10,2013-05-13 11:34:00,
2013-05-13 06:49:00,37.9,31.0,30.14,NNW,332,0.0,2.0,77,0.00,,,0.00,weatherlink.com 1.10,2013-05-13 11:49:00,
2013-05-13 07:05:00,39.9,33.0,30.14,NNW,332,0.0,1.0,75,0.00,,,0.00,weatherlink.com 1.10,2013-05-13 12:05:00,
2013-05-13 07:20:00,41.9,34.0,30.14,NNW,332,0.0,1.0,73,0.00,,,0.00,weatherlink.com 1.10,2013-05-13 12:20:00,
2013-05-13 07:35:00,43.3,34.0,30.15,NNW,332,0.0,2.0,71,0.00,,,0.00,weatherlink.com 1.10,2013-05-13 12:35:00,
2013-05-13 07:50:00,44.9,35.0,30.16,WSW,238,1.0,4.0,68,0.00,,,0.00,weatherlink.com 1.10,2013-05-13 12:50:00,
2013-05-13 08:05:00,46.4,35.0,30.16,WSW,238,4.0,4.0,65,0.00,,,0.00,weatherlink.com 1.10,2013-05-13 13:05:00,
2013-05-13 08:20:00,48.1,35.0,30.16,SW,231,1.0,4.0,62,0.00,,,0.00,weatherlink.com 1.10,2013-05-13 13:20:00,
2013-05-13 08:35:00,49.6,34.0,30.16,West,279,1.0,5.0,56,0.00,,,0.00,weatherlink.com 1.10,2013-05-13 13:35:00,
2013-05-13 08:50:00,51.1,32.0,30.17,WNW,296,5.0,8.0,48,0.00,,,0.00,weatherlink.com 1.10,2013-05-13 13:50:00,
2013-05-13 09:05:00,52.1,33.0,30.16,West,274,5.0,6.0,49,0.00,,,0.00,weatherlink.com 1.10,2013-05-13 14:05:00,
2013-05-13 09:20:00,53.2,30.0,30.16,SW,236,5.0,7.0,42,0.00,,,0.00,weatherlink.com 1.10,2013-05-13 14:20:00,
2013-05-13 09:35:00,54.4,30.0,30.16,West,274,5.0,9.0,40,0.00,,,0.00,weatherlink.com 1.10,2013-05-13 14:35:00,
2013-05-13 09:50:00,55.2,30.0,30.17,WSW,248,2.0,10.0,39,0.00,,,0.00,weatherlink.com 1.10,2013-05-13 14:50:00,
2013-05-13 10:05:00,55.2,28.0,30.17,NNW,331,4.0,8.0,35,0.00,,,0.00,weatherlink.com 1.10,2013-05-13 15:05:00,
2013-05-13 10:20:00,54.9,28.0,30.17,NW,325,5.0,9.0,35,0.00,,,0.00,weatherlink.com 1.10,2013-05-13 15:20:00,
2013-05-13 10:35:00,56.2,29.0,30.17,WSW,238,2.0,9.0,35,0.00,,,0.00,weatherlink.com 1.10,2013-05-13 15:35:00,
2013-05-13 10:50:00,56.1,27.0,30.17,WNW,296,3.0,12.0,33,0.00,,,0.00,weatherlink.com 1.10,2013-05-13 15:50:00,
2013-05-13 11:05:00,57.0,26.0,30.17,West,270,6.0,13.0,30,0.00,,,0.00,weatherlink.com 1.10,2013-05-13 16:05:00,
2013-05-13 11:20:00,57.2,25.0,30.16,North,355,4.0,11.0,29,0.00,,,0.00,weatherlink.com 1.10,2013-05-13 16:20:00,
2013-05-13 11:35:00,57.4,26.0,30.16,WNW,284,2.0,13.0,30,0.00,,,0.00,weatherlink.com 1.10,2013-05-13 16:35:00,
2013-05-13 11:50:00,58.0,26.0,30.16,NW,317,3.0,12.0,29,0.00,,,0.00,weatherlink.com 1.10,2013-05-13 16:50:00,
2013-05-13 12:05:00,58.4,27.0,30.15,West,261,0.0,14.0,30,0.00,,,0.00,weatherlink.com 1.10,2013-05-13 17:05:00,
2013-05-13 12:21:00,58.6,26.0,30.15,NNW,331,4.0,15.0,29,0.00,,,0.00,weatherlink.com 1.10,2013-05-13 17:21:00,
2013-05-13 12:36:00,59.4,27.0,30.14,NW,319,4.0,11.0,29,0.00,,,0.00,weatherlink.com 1.10,2013-05-13 17:36:00,
2013-05-13 12:51:00,59.8,27.0,30.13,NNE,14,9.0,11.0,29,0.00,,,0.00,weatherlink.com 1.10,2013-05-13 17:51:00,
2013-05-13 13:06:00,60.5,26.0,30.13,NNE,13,7.0,11.0,27,0.00,,,0.00,weatherlink.com 1.10,2013-05-13 18:06:00,
2013-05-13 13:21:00,61.5,26.0,30.12,NW,313,8.0,14.0,26,0.00,,,0.00,weatherlink.com 1.10,2013-05-13 18:21:00,
2013-05-13 13:36:00,61.6,26.0,30.12,NW,313,0.0,10.0,26,0.00,,,0.00,weatherlink.com 1.10,2013-05-13 18:36:00,
2013-05-13 13:51:00,61.8,25.0,30.11,NW,307,3.0,8.0,25,0.00,,,0.00,weatherlink.com 1.10,2013-05-13 18:51:00,
2013-05-13 14:06:00,61.8,25.0,30.11,West,260,2.0,15.0,25,0.00,,,0.00,weatherlink.com 1.10,2013-05-13 19:06:00,
2013-05-13 14:21:00,62.4,27.0,30.10,NW,319,5.0,13.0,26,0.00,,,0.00,weatherlink.com 1.10,2013-05-13 19:21:00,
2013-05-13 14:36:00,62.8,25.0,30.09,NW,325,3.0,8.0,24,0.00,,,0.00,weatherlink.com 1.10,2013-05-13 19:36:00,
2013-05-13 14:51:00,63.6,27.0,30.09,North,3,0.0,13.0,25,0.00,,,0.00,weatherlink.com 1.10,2013-05-13 19:51:00,
2013-05-13 15:06:00,63.8,25.0,30.09,NW,306,4.0,11.0,23,0.00,,,0.00,weatherlink.com 1.10,2013-05-13 20:06:00,
2013-05-13 15:21:00,64.4,26.0,30.09,NNW,336,7.0,11.0,23,0.00,,,0.00,weatherlink.com 1.10,2013-05-13 20:21:00,
2013-05-13 15:36:00,63.6,23.0,30.08,WSW,238,2.0,13.0,21,0.00,,,0.00,weatherlink.com 1.10,2013-05-13 20:36:00,
2013-05-13 15:51:00,65.4,27.0,30.07,WSW,238,2.0,6.0,23,0.00,,,0.00,weatherlink.com 1.10,2013-05-13 20:51:00,
2013-05-13 16:06:00,65.3,25.0,30.06,NNW,330,3.0,11.0,22,0.00,,,0.00,weatherlink.com 1.10,2013-05-13 21:06:00,
2013-05-13 16:21:00,65.1,24.0,30.06,NW,307,9.0,9.0,21,0.00,,,0.00,weatherlink.com 1.10,2013-05-13 21:21:00,
2013-05-13 16:36:00,65.6,24.0,30.05,SW,217,3.0,9.0,21,0.00,,,0.00,weatherlink.com 1.10,2013-05-13 21:36:00,
2013-05-13 16:51:00,66.7,27.0,30.05,SW,230,4.0,9.0,22,0.00,,,0.00,weatherlink.com 1.10,2013-05-13 21:51:00,
2013-05-13 17:06:00,66.3,25.0,30.04,SW,220,5.0,9.0,21,0.00,,,0.00,weatherlink.com 1.10,2013-05-13 22:06:00,
2013-05-13 17:21:00,65.9,25.0,30.04,SW,218,5.0,9.0,21,0.00,,,0.00,weatherlink.com 1.10,2013-05-13 22:21:00,
2013-05-13 17:36:00,65.3,26.0,30.04,SW,236,7.0,10.0,23,0.00,,,0.00,weatherlink.com 1.10,2013-05-13 22:36:00,
2013-05-13 17:51:00,65.2,26.0,30.04,SSW,207,5.0,9.0,23,0.00,,,0.00,weatherlink.com 1.10,2013-05-13 22:51:00,
2013-05-13 18:06:00,65.0,28.0,30.04,SW,217,4.0,10.0,25,0.00,,,0.00,weatherlink.com 1.10,2013-05-13 23:06:00,
2013-05-13 18:21:00,64.9,27.0,30.04,SSW,202,5.0,9.0,24,0.00,,,0.00,weatherlink.com 1.10,2013-05-13 23:21:00,
2013-05-13 18:36:00,64.9,28.0,30.03,SSW,194,5.0,9.0,25,0.00,,,0.00,weatherlink.com 1.10,2013-05-13 23:36:00,
2013-05-13 18:51:00,64.7,29.0,30.03,SSW,196,2.0,8.0,26,0.00,,,0.00,weatherlink.com 1.10,2013-05-13 23:51:00,
2013-05-13 19:06:00,63.8,31.0,30.03,SSW,198,3.0,7.0,29,0.00,,,0.00,weatherlink.com 1.10,2013-05-14 00:06:00,
2013-05-13 19:21:00,63.2,30.0,30.03,SSW,198,0.0,3.0,29,0.00,,,0.00,weatherlink.com 1.10,2013-05-14 00:21:00,
2013-05-13 19:36:00,62.5,32.0,30.02,SSW,198,1.0,2.0,32,0.00,,,0.00,weatherlink.com 1.10,2013-05-14 00:36:00,
2013-05-13 19:51:00,61.9,33.0,30.02,SSW,198,1.0,2.0,34,0.00,,,0.00,weatherlink.com 1.10,2013-05-14 00:51:00,
2013-05-13 20:06:00,61.2,32.0,30.02,SSW,198,0.0,1.0,33,0.00,,,0.00,weatherlink.com 1.10,2013-05-14 01:06:00,
2013-05-13 20:21:00,60.9,35.0,30.01,SSW,198,0.0,1.0,38,0.00,,,0.00,weatherlink.com 1.10,2013-05-14 01:21:00,
2013-05-13 20:36:00,60.7,33.0,30.01,SSW,198,0.0,1.0,36,0.00,,,0.00,weatherlink.com 1.10,2013-05-14 01:36:00,
2013-05-13 20:51:00,60.5,34.0,30.01,SSW,198,0.0,1.0,37,0.00,,,0.00,weatherlink.com 1.10,2013-05-14 01:51:00,
2013-05-13 21:06:00,60.4,32.0,30.02,SSW,198,0.0,2.0,35,0.00,,,0.00,weatherlink.com 1.10,2013-05-14 02:06:00,
2013-05-13 21:21:00,59.8,35.0,30.02,SSW,198,0.0,1.0,39,0.00,,,0.00,weatherlink.com 1.10,2013-05-14 02:21:00,
2013-05-13 21:36:00,59.7,35.0,30.02,SSW,198,0.0,3.0,40,0.00,,,0.00,weatherlink.com 1.10,2013-05-14 02:36:00,
2013-05-13 21:51:00,59.3,33.0,30.03,SSW,198,1.0,3.0,38,0.00,,,0.00,weatherlink.com 1.10,2013-05-14 02:51:00,
2013-05-13 22:06:00,59.4,35.0,30.03,SSW,198,3.0,4.0,40,0.00,,,0.00,weatherlink.com 1.10,2013-05-14 03:06:00,
2013-05-13 22:21:00,59.1,36.0,30.03,SSW,198,0.0,4.0,42,0.00,,,0.00,weatherlink.com 1.10,2013-05-14 03:21:00,
2013-05-13 22:36:00,58.4,37.0,30.02,SSW,198,0.0,3.0,46,0.00,,,0.00,weatherlink.com 1.10,2013-05-14 03:36:00,
2013-05-13 22:51:00,57.6,37.0,30.02,SSW,198,2.0,4.0,46,0.00,,,0.00,weatherlink.com 1.10,2013-05-14 03:51:00,
2013-05-13 23:06:00,57.5,37.0,30.02,SSW,198,4.0,5.0,47,0.00,,,0.00,weatherlink.com 1.10,2013-05-14 04:06:00,
2013-05-13 23:21:00,57.4,39.0,30.01,SSW,198,4.0,5.0,50,0.00,,,0.00,weatherlink.com 1.10,2013-05-14 04:21:00,
2013-05-13 23:36:00,57.1,38.0,30.01,SSW,194,4.0,5.0,50,0.00,,,0.00,weatherlink.com 1.10,2013-05-14 04:36:00,
2013-05-13 23:51:00,57.1,38.0,30.00,SSE,168,5.0,8.0,50,0.00,,,0.00,weatherlink.com 1.10,2013-05-14 04:51:00,